Time;durP1;ratioP1;P1;durP2;ratioP2;P2;SDS_P1;SDS_P2;PMS_P1;PMS_P2;Temp;Humidity;BMP_temperature;BMP_pressure;BME280_temperature;BME280_humidity;BME280_pressure;Samples;Min_cycle;Max_cycle;Signal;HPM_P1;HPM_P2
2022/08/29 00:02:11;;;;;;;8.65;3.35;;;14.80;99.90;;;;;;5057542;28;20056;-73
2022/08/29 00:04:38;;;;;;;9.02;3.70;;;14.70;99.90;;;;;;5073636;28;20040;-73
2022/08/29 00:07:06;;;;;;;10.10;3.38;;;14.70;99.90;;;;;;5073622;28;20044;-73
2022/08/29 00:09:34;;;;;;;10.13;3.30;;;14.70;99.90;;;;;;5073949;28;20071;-73
2022/08/29 00:12:02;;;;;;;9.93;3.40;;;14.70;99.90;;;;;;5074148;28;20372;-74
2022/08/29 00:14:30;;;;;;;10.30;3.60;;;14.70;99.90;;;;;;5055973;28;20063;-73
2022/08/29 00:16:57;;;;;;;14.77;3.85;;;14.60;99.90;;;;;;5074572;28;20044;-73
2022/08/29 00:19:25;;;;;;;13.27;3.60;;;14.60;99.90;;;;;;5074565;28;20380;-73
2022/08/29 00:21:53;;;;;;;10.65;4.05;;;14.60;99.90;;;;;;5056133;28;20125;-73
2022/08/29 00:24:21;;;;;;;9.82;4.18;;;13.20;99.90;;;;;;5073826;28;20048;-73
2022/08/29 00:26:48;;;;;;;12.50;3.80;;;14.50;99.90;;;;;;5072549;28;20472;-73
2022/08/29 00:29:16;;;;;;;12.38;4.10;;;14.50;99.90;;;;;;5057375;28;20060;-73
2022/08/29 00:31:44;;;;;;;10.55;4.10;;;14.50;99.90;;;;;;5074163;28;20045;-73
2022/08/29 00:34:11;;;;;;;8.40;4.18;;;14.40;99.90;;;;;;5073446;28;20048;-73
2022/08/29 00:36:39;;;;;;;11.13;4.00;;;14.40;99.90;;;;;;5040728;28;20064;-73
2022/08/29 00:39:06;;;;;;;12.45;4.53;;;14.40;99.90;;;;;;5073608;28;20052;-73
2022/08/29 00:41:35;;;;;;;13.43;3.90;;;14.30;99.90;;;;;;5073119;28;20036;-73
2022/08/29 00:44:04;;;;;;;12.90;4.07;;;15.30;99.90;;;;;;5073384;28;20047;-73
2022/08/29 00:46:41;;;;;;;8.90;3.90;;;14.00;99.90;;;;;;5072306;28;20044;-73
2022/08/29 00:49:12;;;;;;;8.85;4.00;;;14.30;99.90;;;;;;5073549;28;20048;-73
2022/08/29 00:51:40;;;;;;;11.88;4.10;;;14.30;99.90;;;;;;5056732;28;20060;-73
2022/08/29 00:54:10;;;;;;;10.85;4.20;;;14.30;99.90;;;;;;5073040;28;20049;-73
2022/08/29 00:56:40;;;;;;;10.32;4.13;;;14.30;99.90;;;;;;5057271;28;20053;-73
2022/08/29 00:59:13;;;;;;;20.08;4.28;;;14.30;99.90;;;;;;5074440;28;20059;-73
2022/08/29 01:01:41;;;;;;;15.02;3.78;;;14.30;99.90;;;;;;5055938;28;20468;-73
2022/08/29 01:04:09;;;;;;;;;;;14.30;99.90;;;;;;5074815;28;20048;-73
2022/08/29 01:06:52;;;;;;;15.00;4.30;;;14.20;99.90;;;;;;5072759;28;19928;-73
2022/08/29 01:09:21;;;;;;;7.97;3.60;;;14.20;99.90;;;;;;5073055;28;20052;-73
2022/08/29 01:12:31;;;;;;;11.43;3.97;;;14.40;99.90;;;;;;5074120;28;20483;-73
2022/08/29 01:14:46;;;;;;;13.60;3.78;;;14.20;99.90;;;;;;5067619;28;20523;-73
2022/08/29 01:17:20;;;;;;;11.35;3.55;;;14.30;99.90;;;;;;5078371;28;20484;-73
2022/08/29 01:19:56;;;;;;;11.43;3.90;;;14.30;99.90;;;;;;5076622;28;20056;-73
2022/08/29 01:22:46;;;;;;;10.05;3.45;;;14.30;99.90;;;;;;5077157;28;20053;-73
2022/08/29 01:25:21;;;;;;;9.30;3.53;;;14.30;99.90;;;;;;5076558;28;20055;-73
2022/08/29 01:28:04;;;;;;;9.90;3.63;;;14.30;99.90;;;;;;5076534;28;20055;-73
2022/08/29 01:30:32;;;;;;;6.82;3.05;;;14.30;99.90;;;;;;5076859;28;20041;-73
2022/08/29 01:33:00;;;;;;;7.60;3.45;;;14.30;99.90;;;;;;5059123;28;20047;-73
2022/08/29 01:35:28;;;;;;;8.88;3.42;;;14.30;99.90;;;;;;5077438;28;20056;-73
2022/08/29 01:37:56;;;;;;;14.27;4.05;;;14.30;99.90;;;;;;5076370;28;20044;-73
2022/08/29 01:40:27;;;;;;;8.98;3.88;;;14.30;99.90;;;;;;5075377;28;20044;-73
2022/08/29 01:42:56;;;;;;;13.00;4.03;;;14.30;99.90;;;;;;5076701;28;20472;-73
2022/08/29 01:45:24;;;;;;;10.38;3.78;;;14.30;99.90;;;;;;5059985;28;20364;-73
2022/08/29 01:47:51;;;;;;;11.48;3.90;;;14.30;99.90;;;;;;5075373;28;20047;-73
2022/08/29 01:50:19;;;;;;;9.45;3.60;;;14.30;99.90;;;;;;5077103;28;20375;-73
2022/08/29 01:52:47;;;;;;;14.55;3.90;;;14.20;99.90;;;;;;5060368;28;20063;-73
2022/08/29 01:55:14;;;;;;;8.90;3.70;;;14.30;99.90;;;;;;5074987;28;20068;-73
2022/08/29 01:57:43;;;;;;;7.40;3.47;;;14.30;99.90;;;;;;5076130;28;20048;-73
2022/08/29 02:00:11;;;;;;;7.90;3.78;;;14.20;99.90;;;;;;5075826;28;20040;-73
2022/08/29 02:02:41;;;;;;;12.90;4.07;;;14.20;99.90;;;;;;5076127;28;20049;-73
2022/08/29 02:05:09;;;;;;;8.95;3.60;;;14.20;99.90;;;;;;5076740;28;20056;-73
2022/08/29 02:07:36;;;;;;;8.95;3.58;;;14.20;99.90;;;;;;5058712;28;20075;-73
2022/08/29 02:10:05;;;;;;;8.90;3.80;;;14.20;99.90;;;;;;5076107;28;20055;-73
2022/08/29 02:12:34;;;;;;;13.70;4.07;;;14.20;99.90;;;;;;5076696;28;20041;-73
2022/08/29 02:15:02;;;;;;;13.55;4.43;;;14.10;99.90;;;;;;5074896;28;20045;-73
2022/08/29 02:17:30;;;;;;;;;;;14.10;99.90;;;;;;5077146;28;20040;-73
2022/08/29 02:19:57;;;;;;;12.73;4.40;;;14.00;99.90;;;;;;5074594;28;20256;-73
2022/08/29 02:22:25;;;;;;;16.20;4.78;;;13.90;99.90;;;;;;5075645;28;20063;-73
2022/08/29 02:24:52;;;;;;;14.05;4.45;;;14.00;99.90;;;;;;5075742;28;20047;-73
2022/08/29 02:27:20;;;;;;;10.27;4.40;;;14.00;99.90;;;;;;5074105;28;20480;-73
2022/08/29 02:29:47;;;;;;;16.17;4.57;;;13.90;99.90;;;;;;5075454;28;20479;-73
2022/08/29 02:32:15;;;;;;;13.18;4.32;;;13.90;99.90;;;;;;5076163;28;20041;-73
2022/08/29 02:34:44;;;;;;;10.63;4.57;;;13.90;99.90;;;;;;5074425;28;20044;-73
2022/08/29 02:37:15;;;;;;;10.43;4.43;;;14.90;99.90;;;;;;5075395;28;20468;-73
2022/08/29 02:39:42;;;;;;;8.30;4.50;;;13.90;99.90;;;;;;5075074;28;20059;-73
2022/08/29 02:42:10;;;;;;;18.08;4.70;;;13.80;99.90;;;;;;5076107;28;20052;-73
2022/08/29 02:44:38;;;;;;;12.35;4.70;;;13.80;99.90;;;;;;5076297;28;20063;-73
2022/08/29 02:47:07;;;;;;;14.90;4.85;;;13.80;99.90;;;;;;5074956;28;20469;-73
2022/08/29 02:49:35;;;;;;;9.82;4.00;;;13.80;99.90;;;;;;5075003;28;20049;-72
2022/08/29 02:52:05;;;;;;;8.30;4.20;;;13.80;99.90;;;;;;5075442;28;20047;-73
2022/08/29 02:54:33;;;;;;;10.52;4.22;;;13.80;99.90;;;;;;5074037;28;20055;-73
2022/08/29 02:57:01;;;;;;;10.80;3.78;;;13.80;99.90;;;;;;5075730;28;20473;-73
2022/08/29 02:59:29;;;;;;;10.55;4.10;;;13.80;99.90;;;;;;5076459;28;20044;-73
2022/08/29 03:01:56;;;;;;;11.50;4.20;;;13.80;99.90;;;;;;5073826;28;20060;-73
2022/08/29 03:04:24;;;;;;;14.45;3.83;;;13.80;99.90;;;;;;5074957;28;20048;-73
2022/08/29 03:06:52;;;;;;;11.93;4.30;;;13.80;99.90;;;;;;5073826;28;20374;-73
2022/08/29 03:09:19;;;;;;;9.88;3.80;;;13.90;99.90;;;;;;5075544;28;20381;-73
2022/08/29 03:11:47;;;;;;;12.20;3.90;;;13.90;99.90;;;;;;5074615;28;20040;-73
2022/08/29 03:14:15;;;;;;;7.85;3.58;;;13.90;99.90;;;;;;5073908;28;20063;-73
2022/08/29 03:16:42;;;;;;;9.52;3.67;;;13.90;99.90;;;;;;5075465;28;20067;-73
2022/08/29 03:19:10;;;;;;;11.70;4.15;;;13.90;99.90;;;;;;5075383;28;20048;-73
2022/08/29 03:21:37;;;;;;;8.82;4.00;;;13.90;99.90;;;;;;5073542;28;20368;-73
2022/08/29 03:24:05;;;;;;;8.65;4.47;;;13.90;99.90;;;;;;5075276;28;20045;-73
2022/08/29 03:26:33;;;;;;;10.75;3.80;;;13.90;99.90;;;;;;5073456;28;20052;-73
2022/08/29 03:29:00;;;;;;;10.32;4.10;;;14.00;99.90;;;;;;5075499;28;20040;-73
2022/08/29 03:31:28;;;;;;;6.40;3.88;;;13.90;99.90;;;;;;5058063;28;20062;-73
2022/08/29 03:33:56;;;;;;;7.18;3.90;;;13.90;99.90;;;;;;5073364;28;20068;-73
2022/08/29 03:36:25;;;;;;;10.57;3.85;;;13.90;99.90;;;;;;5075268;28;20334;-73
2022/08/29 03:38:53;;;;;;;10.80;4.00;;;13.90;99.90;;;;;;5073159;28;20059;-73
2022/08/29 03:41:24;;;;;;;12.73;4.03;;;13.90;99.90;;;;;;5073289;28;20052;-73
2022/08/29 03:43:54;;;;;;;13.07;4.18;;;14.00;99.90;;;;;;5075116;28;20056;-73
2022/08/29 03:46:22;;;;;;;10.20;3.85;;;13.90;99.90;;;;;;5074012;28;20360;-73
2022/08/29 03:48:50;;;;;;;8.68;3.95;;;13.90;99.90;;;;;;5075104;28;20372;-73
2022/08/29 03:51:19;;;;;;;10.82;3.83;;;13.90;99.90;;;;;;5057459;28;20060;-73
2022/08/29 03:53:46;;;;;;;8.48;3.85;;;14.00;99.90;;;;;;5074029;28;20047;-73
2022/08/29 03:56:15;;;;;;;9.75;3.72;;;13.90;99.90;;;;;;5073935;28;20059;-73
2022/08/29 03:58:46;;;;;;;11.05;3.88;;;13.90;99.90;;;;;;5074317;28;20052;-73
2022/08/29 04:01:23;;;;;;;9.80;4.00;;;13.90;99.90;;;;;;5073790;28;20044;-73
2022/08/29 04:03:51;;;;;;;12.27;4.35;;;13.90;99.90;;;;;;5074112;28;20048;-73
2022/08/29 04:06:21;;;;;;;13.10;4.18;;;13.90;99.90;;;;;;5074110;28;20048;-73
2022/08/29 04:08:50;;;;;;;13.38;3.95;;;13.80;99.90;;;;;;5056978;28;20377;-73
2022/08/29 04:11:19;;;;;;;9.10;4.10;;;13.80;99.90;;;;;;5073634;28;20052;-73
2022/08/29 04:13:47;;;;;;;11.77;4.22;;;13.80;99.90;;;;;;5073764;28;20041;-73
2022/08/29 04:16:20;;;;;;;11.18;4.07;;;13.80;99.90;;;;;;5074662;28;20048;-73
2022/08/29 04:18:48;;;;;;;11.68;4.40;;;13.80;99.90;;;;;;5074294;28;20053;-73
2022/08/29 04:21:17;;;;;;;9.52;4.40;;;13.70;99.90;;;;;;5072628;28;20053;-73
2022/08/29 04:23:45;;;;;;;8.88;4.68;;;13.70;99.90;;;;;;5073912;28;20491;-73
2022/08/29 04:26:18;;;;;;;17.45;4.72;;;13.60;99.90;;;;;;5056964;28;20354;-73
2022/08/29 04:29:08;;;;;;;8.55;4.05;;;13.60;99.90;;;;;;5074125;28;20048;-73
2022/08/29 04:31:36;;;;;;;8.57;4.15;;;13.60;99.90;;;;;;5057405;28;20048;-73
2022/08/29 04:34:06;;;;;;;10.80;4.38;;;13.60;99.90;;;;;;5073571;28;20476;-73
2022/08/29 04:36:35;;;;;;;12.13;4.95;;;13.50;99.90;;;;;;5073581;28;20053;-73
2022/08/29 04:39:03;;;;;;;15.23;4.80;;;13.50;99.90;;;;;;5074301;28;20059;-73
2022/08/29 04:41:31;;;;;;;14.68;4.70;;;13.50;99.90;;;;;;5072258;28;20052;-73
2022/08/29 04:44:01;;;;;;;11.55;4.63;;;13.40;99.90;;;;;;5074408;28;20048;-73
2022/08/29 04:46:29;;;;;;;9.40;4.32;;;13.40;99.90;;;;;;5072664;28;20337;-73
2022/08/29 04:48:57;;;;;;;10.57;4.35;;;13.40;99.90;;;;;;5057215;28;20048;-73
2022/08/29 04:51:33;;;;;;;9.77;4.50;;;13.40;99.90;;;;;;5076216;28;20040;-73
2022/08/29 04:54:02;;;;;;;9.73;4.93;;;13.40;99.90;;;;;;5077424;28;20052;-73
2022/08/29 04:56:30;;;;;;;7.72;4.38;;;13.40;99.90;;;;;;5078581;28;20045;-73
2022/08/29 04:58:57;;;;;;;10.75;4.80;;;13.40;99.90;;;;;;5077689;28;20048;-73
2022/08/29 05:01:25;;;;;;;14.38;5.18;;;13.40;99.90;;;;;;5076341;28;20475;-73
2022/08/29 05:03:56;;;;;;;9.15;4.68;;;13.40;99.90;;;;;;5077053;28;20384;-73
2022/08/29 05:06:24;;;;;;;13.60;4.50;;;13.40;99.90;;;;;;5059875;28;20464;-73
2022/08/29 05:08:52;;;;;;;14.32;4.85;;;13.30;99.90;;;;;;5076914;28;20057;-73
2022/08/29 05:11:29;;;;;;;9.45;4.47;;;13.30;99.90;;;;;;5060258;28;20048;-73
2022/08/29 05:13:58;;;;;;;11.20;4.60;;;13.30;99.90;;;;;;5059391;28;20041;-73
2022/08/29 05:16:26;;;;;;;9.70;4.50;;;13.30;99.90;;;;;;5060344;28;20437;-73
2022/08/29 05:18:54;;;;;;;9.63;3.92;;;13.30;99.90;;;;;;5077005;28;20376;-73
2022/08/29 05:21:27;;;;;;;11.35;4.32;;;13.30;99.90;;;;;;5059402;28;20070;-73
2022/08/29 05:23:55;;;;;;;10.55;4.35;;;13.30;99.90;;;;;;5077250;28;20056;-73
2022/08/29 05:26:28;;;;;;;11.90;4.45;;;13.30;99.90;;;;;;5075580;28;20106;-73
2022/08/29 05:28:56;;;;;;;11.32;4.22;;;13.10;99.90;;;;;;5076899;28;20045;-73
2022/08/29 05:31:24;;;;;;;12.10;4.63;;;13.30;99.90;;;;;;5076697;28;20049;-73
2022/08/29 05:33:52;;;;;;;10.50;4.63;;;13.30;99.90;;;;;;5076918;28;20356;-73
2022/08/29 05:36:20;;;;;;;9.85;4.70;;;13.30;99.90;;;;;;5076594;28;20052;-73
2022/08/29 05:38:47;;;;;;;12.18;4.53;;;13.30;99.90;;;;;;5060145;28;20052;-73
2022/08/29 05:41:17;;;;;;;18.50;4.47;;;13.30;99.90;;;;;;5076217;28;20067;-73
2022/08/29 05:43:46;;;;;;;15.02;4.72;;;13.30;99.90;;;;;;5060012;28;20048;-72
2022/08/29 05:46:13;;;;;;;10.27;4.40;;;13.30;99.90;;;;;;5077209;28;20044;-73
2022/08/29 05:48:47;;;;;;;11.95;4.75;;;13.40;99.90;;;;;;5077757;28;20037;-72
2022/08/29 05:51:19;;;;;;;;;;;13.40;99.90;;;;;;5077138;28;20048;-72
2022/08/29 05:53:47;;;;;;;9.85;4.63;;;13.50;99.90;;;;;;5058846;28;19920;-72
2022/08/29 05:56:22;;;;;;;;;;;13.50;99.90;;;;;;5077368;28;20055;-73
2022/08/29 05:58:49;;;;;;;8.57;4.68;;;13.50;99.90;;;;;;5076434;28;19920;-72
2022/08/29 06:01:27;;;;;;;13.38;4.50;;;13.50;99.90;;;;;;5041713;28;20052;-72
2022/08/29 06:03:59;;;;;;;8.73;4.18;;;13.60;99.90;;;;;;5075907;28;20056;-71
2022/08/29 06:06:27;;;;;;;;;;;13.60;99.90;;;;;;5075321;28;20051;-72
2022/08/29 06:08:55;;;;;;;;;;;13.70;99.90;;;;;;5059680;28;19921;-72
2022/08/29 06:11:27;;;;;;;14.30;4.70;;;13.70;99.90;;;;;;5075830;28;19924;-73
2022/08/29 06:13:55;;;;;;;12.05;4.70;;;13.70;99.90;;;;;;5058536;28;20040;-73
2022/08/29 06:16:24;;;;;;;10.95;4.85;;;13.80;99.90;;;;;;5076950;28;20516;-72
2022/08/29 06:18:53;;;;;;;8.52;4.25;;;13.90;99.90;;;;;;5076842;28;20051;-72
2022/08/29 06:21:21;;;;;;;9.65;4.20;;;14.00;99.90;;;;;;5057947;28;20063;-73
2022/08/29 06:23:48;;;;;;;;;;;14.10;99.90;;;;;;5077649;28;20044;-72
2022/08/29 06:26:17;;;;;;;9.30;3.63;;;14.20;99.90;;;;;;5042508;28;20383;-72
2022/08/29 06:28:45;;;;;;;7.60;3.25;;;14.30;99.90;;;;;;5075546;28;20365;-72
2022/08/29 06:31:23;;;;;;;11.88;3.33;;;14.40;99.90;;;;;;5076381;28;20415;-72
2022/08/29 06:33:52;;;;;;;7.88;2.88;;;14.50;99.90;;;;;;5075446;28;20515;-73
2022/08/29 06:36:20;;;;;;;7.25;2.90;;;14.70;99.90;;;;;;5076168;28;20051;-73
2022/08/29 06:38:48;;;;;;;9.32;2.72;;;14.80;99.90;;;;;;5075504;28;20064;-72
2022/08/29 06:41:16;;;;;;;9.00;2.60;;;14.90;99.90;;;;;;5075059;28;20048;-72
2022/08/29 06:43:44;;;;;;;9.27;2.65;;;15.00;99.90;;;;;;5059072;28;20057;-72
2022/08/29 06:46:30;;;;;;;7.65;2.67;;;15.10;99.90;;;;;;5074992;28;20484;-72
2022/08/29 06:49:00;;;;;;;8.70;2.90;;;15.20;99.90;;;;;;5075563;28;20491;-72
2022/08/29 06:51:31;;;;;;;9.52;2.42;;;15.40;99.90;;;;;;5075338;28;20052;-72
2022/08/29 06:54:04;;;;;;;6.50;2.25;;;15.40;99.90;;;;;;5057709;28;20480;-73
2022/08/29 06:56:34;;;;;;;7.18;2.42;;;15.60;99.90;;;;;;5074985;28;20067;-73
2022/08/29 06:59:05;;;;;;;9.93;2.28;;;15.70;99.90;;;;;;5076641;28;20063;-72
2022/08/29 07:01:33;;;;;;;5.63;2.40;;;15.80;99.90;;;;;;5057313;28;20056;-73
2022/08/29 07:04:02;;;;;;;5.80;2.22;;;15.90;99.90;;;;;;5074384;28;20048;-73
2022/08/29 07:06:31;;;;;;;8.50;2.35;;;16.00;99.90;;;;;;5074230;28;20045;-73
2022/08/29 07:08:59;;;;;;;6.28;2.20;;;16.10;99.90;;;;;;5075352;28;20045;-72
2022/08/29 07:11:29;;;;;;;7.97;2.20;;;16.10;99.90;;;;;;5075260;28;20056;-73
2022/08/29 07:13:59;;;;;;;11.32;2.50;;;16.10;99.90;;;;;;5056770;28;20048;-73
2022/08/29 07:16:28;;;;;;;8.90;2.58;;;16.20;99.90;;;;;;5074500;28;20044;-72
2022/08/29 07:18:55;;;;;;;10.02;2.58;;;16.20;99.90;;;;;;5074939;28;20067;-73
2022/08/29 07:21:25;;;;;;;6.85;2.08;;;16.30;99.90;;;;;;5073224;28;20051;-73
2022/08/29 07:23:54;;;;;;;6.80;2.20;;;16.40;99.90;;;;;;5074350;28;20052;-73
2022/08/29 07:26:43;;;;;;;6.38;2.05;;;16.60;99.90;;;;;;5073916;28;20045;-73
2022/08/29 07:29:18;;;;;;;6.00;2.15;;;16.70;99.90;;;;;;5075094;28;20487;-73
2022/08/29 07:31:46;;;;;;;5.72;2.08;;;16.90;99.90;;;;;;5074250;28;20044;-73
2022/08/29 07:34:14;;;;;;;8.77;2.10;;;17.10;99.90;;;;;;5073527;28;20041;-72
2022/08/29 07:36:42;;;;;;;8.07;2.08;;;17.30;99.90;;;;;;5073922;28;20063;-73
2022/08/29 07:39:13;;;;;;;5.57;1.88;;;17.40;99.90;;;;;;5073869;28;20044;-73
2022/08/29 07:41:42;;;;;;;7.15;1.98;;;17.60;99.90;;;;;;5073895;28;20059;-73
2022/08/29 07:44:11;;;;;;;6.47;1.70;;;17.80;99.90;;;;;;5073985;28;20052;-73
2022/08/29 07:46:39;;;;;;;5.93;2.05;;;18.00;99.90;;;;;;5073684;28;20216;-73
2022/08/29 07:49:07;;;;;;;5.82;2.08;;;18.20;99.90;;;;;;5074054;28;20476;-73
2022/08/29 07:51:34;;;;;;;5.40;1.60;;;18.40;99.90;;;;;;5074260;28;20044;-73
2022/08/29 07:54:03;;;;;;;7.72;2.03;;;18.60;99.90;;;;;;5056445;28;20048;-73
2022/08/29 07:56:39;;;;;;;6.65;2.00;;;18.80;99.90;;;;;;5073999;28;20048;-72
2022/08/29 07:59:08;;;;;;;4.18;1.45;;;19.00;99.90;;;;;;5073805;28;20060;-73
2022/08/29 08:01:36;;;;;;;10.40;1.75;;;19.10;99.90;;;;;;5072764;28;20040;-72
2022/08/29 08:04:04;;;;;;;7.47;2.00;;;19.20;99.90;;;;;;5074389;28;20063;-72
2022/08/29 08:06:35;;;;;;;6.70;1.58;;;19.40;99.90;;;;;;5072895;28;20045;-73
2022/08/29 08:09:04;;;;;;;5.63;1.60;;;19.40;99.90;;;;;;5074188;28;20051;-72
2022/08/29 08:11:32;;;;;;;5.53;1.80;;;19.50;99.90;;;;;;5074059;28;20059;-72
2022/08/29 08:14:00;;;;;;;;;;;19.60;99.90;;;;;;5073970;28;20045;-72
2022/08/29 08:16:29;;;;;;;7.60;1.77;;;19.70;99.70;;;;;;5074214;28;19921;-72
2022/08/29 08:18:56;;;;;;;8.88;1.90;;;19.70;99.90;;;;;;5057540;28;20059;-72
2022/08/29 08:21:25;;;;;;;4.38;1.77;;;19.60;98.50;;;;;;5072867;28;20056;-72
2022/08/29 08:23:53;;;;;;;5.72;1.90;;;19.60;98.90;;;;;;5073715;28;20059;-72
2022/08/29 08:26:21;;;;;;;6.88;1.80;;;19.60;98.80;;;;;;5072637;28;20376;-72
2022/08/29 08:28:51;;;;;;;4.65;1.80;;;19.50;98.00;;;;;;5074317;28;20052;-73
2022/08/29 08:31:21;;;;;;;6.22;1.67;;;19.50;97.90;;;;;;5074049;28;20059;-72
2022/08/29 08:33:50;;;;;;;;;;;19.50;97.40;;;;;;5073231;28;20045;-72
2022/08/29 08:36:27;;;;;;;6.78;1.85;;;19.50;96.70;;;;;;5057350;28;19920;-72
2022/08/29 08:38:58;;;;;;;9.23;1.85;;;19.50;96.90;;;;;;5073884;28;20463;-75
2022/08/29 08:42:02;;;;;;;5.70;1.83;;;19.50;97.30;;;;;;5055606;28;20052;-74
2022/08/29 08:44:54;;;;;;;8.10;1.70;;;19.50;97.00;;;;;;5073186;28;20044;-75
2022/08/29 08:47:27;;;;;;;6.15;1.92;;;19.50;96.40;;;;;;5073141;28;20037;-75
2022/08/29 08:50:16;;;;;;;4.97;1.30;;;19.50;96.40;;;;;;5074147;28;20140;-73
2022/08/29 08:52:57;;;;;;;7.50;1.75;;;19.60;95.90;;;;;;5073137;28;20040;-73
2022/08/29 08:55:34;;;;;;;5.35;1.63;;;19.60;96.10;;;;;;5073021;28;20051;-75
2022/08/29 08:58:39;;;;;;;6.10;1.75;;;19.70;96.10;;;;;;5056818;28;20060;-71
2022/08/29 09:01:44;;;;;;;4.82;1.63;;;19.60;94.50;;;;;;5049665;28;20048;-74
2022/08/29 09:04:44;;;;;;;8.02;2.00;;;19.70;94.80;;;;;;5070952;28;20384;-73
2022/08/29 09:07:44;;;;;;;5.65;1.92;;;19.80;95.20;;;;;;5055707;28;20048;-70
2022/08/29 09:10:29;;;;;;;7.40;2.00;;;19.80;94.70;;;;;;5073690;28;20053;-74
2022/08/29 09:13:13;;;;;;;9.13;1.83;;;19.80;94.60;;;;;;5040093;28;20056;-75
2022/08/29 09:15:44;;;;;;;5.10;1.50;;;19.80;93.20;;;;;;5056645;28;20132;-74
2022/08/29 09:18:40;;;;;;;4.97;1.88;;;19.80;94.00;;;;;;5080985;28;20047;-74
2022/08/29 09:21:13;;;;;;;6.40;1.58;;;19.80;93.50;;;;;;5092726;28;20055;-73
2022/08/29 09:24:05;;;;;;;5.00;1.90;;;19.90;93.30;;;;;;5062914;28;20044;-74
2022/08/29 09:26:34;;;;;;;5.32;1.55;;;20.00;93.40;;;;;;5075542;28;20048;-75
2022/08/29 09:29:02;;;;;;;5.18;1.90;;;20.10;92.90;;;;;;5093057;28;20059;-73
2022/08/29 09:31:32;;;;;;;3.97;1.50;;;20.30;92.60;;;;;;5093971;28;20059;-75
2022/08/29 09:34:06;;;;;;;4.28;1.70;;;20.40;91.90;;;;;;5092396;28;20040;-74
2022/08/29 09:36:38;;;;;;;5.20;1.75;;;20.50;92.00;;;;;;5093654;28;20040;-72
2022/08/29 09:39:20;;;;;;;5.13;1.50;;;20.60;91.60;;;;;;5078198;28;20385;-72
2022/08/29 09:41:57;;;;;;;6.70;1.85;;;20.80;91.00;;;;;;5096568;28;20059;-71
2022/08/29 09:44:31;;;;;;;5.05;1.45;;;20.80;90.80;;;;;;5076873;28;20049;-72
2022/08/29 09:47:13;;;;;;;3.25;1.50;;;20.80;90.10;;;;;;5075637;28;20044;-71
2022/08/29 09:49:59;;;;;;;5.25;1.50;;;20.80;90.80;;;;;;5060042;28;20452;-71
2022/08/29 09:52:26;;;;;;;5.80;1.60;;;21.00;90.30;;;;;;5060066;28;20044;-71
2022/08/29 09:54:54;;;;;;;4.38;1.75;;;21.10;90.20;;;;;;5075360;28;20056;-71
2022/08/29 09:57:26;;;;;;;4.65;1.52;;;21.30;88.00;;;;;;5077228;28;20056;-71
2022/08/29 10:00:14;;;;;;;4.72;1.70;;;21.50;88.70;;;;;;5075270;28;20049;-72
2022/08/29 10:02:49;;;;;;;6.88;1.98;;;21.70;87.40;;;;;;5076486;28;20049;-71
2022/08/29 10:05:29;;;;;;;6.35;1.85;;;21.80;87.50;;;;;;5077094;28;20048;-72
2022/08/29 10:07:57;;;;;;;5.90;1.58;;;21.80;85.90;;;;;;5075804;28;20040;-72
2022/08/29 10:10:29;;;;;;;4.07;1.90;;;21.70;86.20;;;;;;5085253;28;20479;-72
2022/08/29 10:13:10;;;;;;;4.07;1.83;;;21.60;85.00;;;;;;5096136;28;20040;-72
2022/08/29 10:15:51;;;;;;;4.72;1.80;;;21.50;85.70;;;;;;5095444;28;20052;-75
2022/08/29 10:18:44;;;;;;;5.28;1.60;;;21.40;85.00;;;;;;5079099;28;20384;-76
2022/08/29 10:21:23;;;;;;;4.53;1.85;;;21.50;83.90;;;;;;5095053;28;20467;-75
2022/08/29 10:24:16;;;;;;;5.90;2.00;;;21.60;84.30;;;;;;5095916;28;20051;-76
2022/08/29 10:26:55;;;;;;;5.38;1.73;;;21.70;83.30;;;;;;5074422;28;20067;-71
2022/08/29 10:29:38;;;;;;;4.45;1.90;;;21.70;83.70;;;;;;5074968;28;20040;-75
2022/08/29 10:32:50;;;;;;;7.10;1.90;;;21.80;83.00;;;;;;5086501;28;20044;-75
2022/08/29 10:35:34;;;;;;;2.97;1.50;;;21.90;82.00;;;;;;5062739;28;20048;-75
2022/08/29 10:38:04;;;;;;;4.55;1.70;;;21.80;82.30;;;;;;5078296;28;20044;-75
2022/08/29 10:40:41;;;;;;;5.15;1.60;;;21.80;82.90;;;;;;5074228;28;20075;-75
2022/08/29 10:43:16;;;;;;;;;;;21.70;81.90;;;;;;5075900;28;20048;-75
2022/08/29 10:46:02;;;;;;;3.63;1.65;;;21.70;81.80;;;;;;5076074;28;19920;-74
2022/08/29 10:48:37;;;;;;;5.40;1.90;;;21.80;81.50;;;;;;5083867;28;20040;-75
2022/08/29 10:51:17;;;;;;;6.80;1.90;;;21.80;81.40;;;;;;5079054;28;20058;-76
2022/08/29 10:53:53;;;;;;;7.28;2.10;;;21.70;82.50;;;;;;5077539;28;20048;-75
2022/08/29 10:56:29;;;;;;;6.80;2.13;;;21.80;83.10;;;;;;5095469;28;20055;-75
2022/08/29 10:59:05;;;;;;;4.47;1.65;;;21.80;81.70;;;;;;5079405;28;20396;-76
2022/08/29 11:01:47;;;;;;;4.72;1.70;;;21.70;81.90;;;;;;5095293;28;20357;-76
2022/08/29 11:04:20;;;;;;;4.40;1.65;;;21.60;82.30;;;;;;5095186;28;20490;-75
2022/08/29 11:06:56;;;;;;;6.00;1.65;;;21.60;82.90;;;;;;5094273;28;20051;-76
2022/08/29 11:09:53;;;;;;;5.75;1.70;;;21.70;82.80;;;;;;5095491;28;20455;-74
2022/08/29 11:12:46;;;;;;;6.00;1.95;;;21.70;81.90;;;;;;5094968;28;20048;-74
2022/08/29 11:15:37;;;;;;;4.95;2.20;;;21.80;81.30;;;;;;5093925;28;20044;-75
2022/08/29 11:18:14;;;;;;;4.70;1.95;;;21.90;80.60;;;;;;5078273;28;20040;-75
2022/08/29 11:21:15;;;;;;;5.22;2.20;;;21.90;81.30;;;;;;5093881;28;20039;-74
2022/08/29 11:23:48;;;;;;;6.90;1.92;;;22.00;80.60;;;;;;5094430;28;20048;-74
2022/08/29 11:26:21;;;;;;;6.93;2.30;;;22.20;81.50;;;;;;5075133;28;20483;-73
2022/08/29 11:29:03;;;;;;;5.72;1.98;;;22.30;81.30;;;;;;5074642;28;20040;-71
2022/08/29 11:31:37;;;;;;;6.63;2.03;;;22.30;81.20;;;;;;5057860;28;20044;-76
2022/08/29 11:34:38;;;;;;;5.70;2.05;;;22.10;80.90;;;;;;5056405;28;20055;-73
2022/08/29 11:37:18;;;;;;;7.63;2.35;;;22.10;80.80;;;;;;5083018;28;20048;-72
2022/08/29 11:40:08;;;;;;;5.35;2.30;;;22.00;82.10;;;;;;5071346;28;20052;-72
2022/08/29 11:42:40;;;;;;;6.10;1.90;;;22.00;81.70;;;;;;5074148;28;20059;-72
2022/08/29 11:45:27;;;;;;;7.13;2.42;;;21.90;81.50;;;;;;5076198;28;20048;-72
2022/08/29 11:48:35;;;;;;;8.50;2.40;;;22.00;82.20;;;;;;5073639;28;20056;-72
2022/08/29 11:51:27;;;;;;;5.82;2.42;;;22.00;83.10;;;;;;5057362;28;20456;-71
2022/08/29 11:54:15;;;;;;;7.20;2.90;;;22.00;83.50;;;;;;5056203;28;20047;-71
2022/08/29 11:56:43;;;;;;;6.93;2.33;;;22.00;84.20;;;;;;5057009;28;20044;-71
2022/08/29 11:59:43;;;;;;;6.80;2.45;;;21.80;85.20;;;;;;5074222;28;20045;-72
2022/08/29 12:02:31;;;;;;;8.88;2.60;;;21.60;86.60;;;;;;5056971;28;20049;-71
2022/08/29 12:04:59;;;;;;;6.38;2.75;;;21.30;88.10;;;;;;5073404;28;20048;-71
2022/08/29 12:07:47;;;;;;;8.80;2.28;;;21.10;87.50;;;;;;5073393;28;20044;-71
2022/08/29 12:10:18;;;;;;;;;;;20.80;88.00;;;;;;5073747;28;20071;-71
2022/08/29 12:12:48;;;;;;;7.47;2.45;;;20.70;88.70;;;;;;5074554;28;19920;-72
2022/08/29 12:15:30;;;;;;;12.70;2.65;;;20.60;88.50;;;;;;5078035;28;20044;-71
2022/08/29 12:17:58;;;;;;;9.18;2.50;;;20.60;88.30;;;;;;5082780;28;20049;-72
2022/08/29 12:20:29;;;;;;;7.43;2.67;;;20.60;89.00;;;;;;5080993;28;20040;-71
2022/08/29 12:23:02;;;;;;;7.07;2.72;;;20.70;89.30;;;;;;5084809;28;20054;-72
2022/08/29 12:25:45;;;;;;;8.38;2.35;;;20.80;89.40;;;;;;5084173;28;20058;-72
2022/08/29 12:28:16;;;;;;;5.45;2.35;;;20.90;89.10;;;;;;5056074;28;20072;-72
2022/08/29 12:30:48;;;;;;;;;;;21.00;88.70;;;;;;5074142;28;20050;-72
2022/08/29 12:33:35;;;;;;;10.85;2.63;;;20.90;88.60;;;;;;5072797;28;19924;-72
2022/08/29 12:36:35;;;;;;;5.88;2.20;;;21.30;87.40;;;;;;5073744;28;20045;-72
2022/08/29 12:39:34;;;;;;;5.57;2.45;;;21.40;86.90;;;;;;5073374;28;20097;-72
2022/08/29 12:42:10;;;;;;;7.85;2.40;;;21.60;86.70;;;;;;5072222;28;20076;-72
2022/08/29 12:44:43;;;;;;;4.90;2.30;;;21.70;85.20;;;;;;5073450;28;20064;-74
2022/08/29 12:47:33;;;;;;;5.55;2.20;;;21.80;86.00;;;;;;5075219;28;20048;-76
2022/08/29 12:50:33;;;;;;;6.47;2.28;;;22.00;84.30;;;;;;5073559;28;20044;-74
2022/08/29 12:53:14;;;;;;;8.65;2.33;;;22.20;83.30;;;;;;5054757;28;20044;-76
2022/08/29 12:55:48;;;;;;;8.50;2.20;;;22.30;83.70;;;;;;5073721;28;20044;-72
2022/08/29 12:58:35;;;;;;;6.70;2.45;;;22.50;83.20;;;;;;5074338;28;20386;-72
2022/08/29 13:01:08;;;;;;;4.90;2.05;;;22.80;80.90;;;;;;5073126;28;20349;-72
2022/08/29 13:03:35;;;;;;;5.28;2.53;;;23.10;81.50;;;;;;5057107;28;20063;-73
2022/08/29 13:06:07;;;;;;;9.18;2.40;;;23.50;80.90;;;;;;5074091;28;20040;-72
2022/08/29 13:08:38;;;;;;;6.65;2.30;;;23.80;79.00;;;;;;5073231;28;20360;-73
2022/08/29 13:11:09;;;;;;;6.75;2.47;;;23.80;78.40;;;;;;5079506;28;20377;-76
2022/08/29 13:13:38;;;;;;;7.22;2.25;;;23.90;78.10;;;;;;5083036;28;20049;-76
2022/08/29 13:16:20;;;;;;;6.88;2.35;;;23.90;77.70;;;;;;5067188;28;20048;-78
2022/08/29 13:18:48;;;;;;;5.20;2.00;;;24.00;77.10;;;;;;5060763;28;20044;-74